Time;durP1;ratioP1;P1;durP2;ratioP2;P2;SDS_P1;SDS_P2;PMS_P1;PMS_P2;Temp;Humidity;BMP_temperature;BMP_pressure;BME280_temperature;BME280_humidity;BME280_pressure;Samples;Min_cycle;Max_cycle;Signal;HPM_P1;HPM_P2
2022/05/26 00:00:50;;;;;;;25.23;13.98;;;;;;;13.44;83.97;101618.41;4936643;29;20030;-44
2022/05/26 00:03:16;;;;;;;26.23;13.07;;;;;;;13.43;84.07;101619.22;4935878;29;20028;-45
2022/05/26 00:05:41;;;;;;;25.75;12.50;;;;;;;13.45;84.01;101620.16;4936809;29;20103;-45
2022/05/26 00:08:07;;;;;;;24.17;13.63;;;;;;;13.46;83.97;101616.72;4936470;29;20027;-45
2022/05/26 00:10:34;;;;;;;23.67;12.38;;;;;;;13.46;83.92;101616.72;4935885;29;20055;-45
2022/05/26 00:13:00;;;;;;;30.10;12.07;;;;;;;13.48;83.69;101616.78;4936389;29;20467;-45
2022/05/26 00:15:26;;;;;;;26.27;12.05;;;;;;;13.48;83.77;101616.78;4936567;29;20038;-44
2022/05/26 00:17:52;;;;;;;25.00;11.70;;;;;;;13.48;83.81;101620.25;4935591;29;20476;-44
2022/05/26 00:20:17;;;;;;;25.63;12.45;;;;;;;13.49;84.07;101619.41;4936185;29;20114;-46
2022/05/26 00:22:42;;;;;;;22.92;11.13;;;;;;;13.49;84.03;101622.00;4936536;29;20027;-44
2022/05/26 00:25:08;;;;;;;22.60;11.18;;;;;;;13.50;83.96;101625.47;4935669;29;20023;-44
2022/05/26 00:27:33;;;;;;;24.30;12.15;;;;;;;13.50;83.98;101628.94;4936339;29;20036;-43
2022/05/26 00:29:58;;;;;;;21.33;11.00;;;;;;;13.51;83.73;101635.00;4935422;29;20091;-44
2022/05/26 00:32:24;;;;;;;24.77;11.35;;;;;;;13.50;83.82;101634.13;4936724;29;20388;-44
2022/05/26 00:34:49;;;;;;;21.85;11.52;;;;;;;13.49;83.91;101637.53;4936144;29;20043;-44
2022/05/26 00:37:14;;;;;;;25.67;12.13;;;;;;;13.50;84.07;101636.72;4935226;29;20480;-45
2022/05/26 00:39:40;;;;;;;25.45;11.68;;;;;;;13.49;84.09;101627.19;4936020;29;20495;-44
2022/05/26 00:42:07;;;;;;;23.90;11.90;;;;;;;13.48;83.90;101630.59;4935403;29;20028;-44
2022/05/26 00:44:34;;;;;;;25.20;11.05;;;;;;;13.50;84.15;101633.22;4935201;29;20030;-45
2022/05/26 00:47:16;;;;;;;21.90;10.60;;;;;;;13.49;83.89;101632.38;4935897;29;20456;-45
2022/05/26 00:50:03;;;;;;;22.73;10.82;;;;;;;13.49;84.07;101631.47;4936046;29;20035;-46
2022/05/26 00:52:36;;;;;;;29.02;11.68;;;;;;;13.46;84.18;101627.06;4935510;29;20111;-45
2022/05/26 00:55:07;;;;;;;21.55;11.27;;;;;;;13.46;84.47;101633.97;4935892;29;20090;-46
2022/05/26 00:57:41;;;;;;;24.77;11.57;;;;;;;13.46;84.65;101626.22;4935998;29;20066;-44
2022/05/26 01:00:19;;;;;;;26.73;12.00;;;;;;;13.46;84.47;101626.22;4934832;29;20071;-46
2022/05/26 01:02:53;;;;;;;27.88;11.68;;;;;;;13.45;84.85;101635.69;4936156;29;20032;-44
2022/05/26 01:05:27;;;;;;;29.65;12.90;;;;;;;13.44;84.77;101626.16;4934996;29;20431;-44
2022/05/26 01:07:54;;;;;;;28.85;11.63;;;;;;;13.46;84.97;101629.66;4935961;29;20042;-43
2022/05/26 01:10:20;;;;;;;30.63;12.93;;;;;;;13.45;84.91;101633.09;4935568;29;20043;-45
2022/05/26 01:12:45;;;;;;;28.75;13.00;;;;;;;13.43;84.86;101633.91;4935003;29;20031;-44
2022/05/26 01:15:15;;;;;;;28.73;12.43;;;;;;;13.42;85.35;101630.41;4935398;29;20028;-44
2022/05/26 01:18:05;;;;;;;34.97;12.80;;;;;;;13.43;85.21;101632.16;4935732;29;20027;-43
2022/05/26 01:21:04;;;;;;;32.08;12.85;;;;;;;13.44;85.17;101633.94;4935135;29;20383;-44
2022/05/26 01:23:52;;;;;;;36.35;13.48;;;;;;;13.44;85.19;101631.34;4935730;29;20032;-44
2022/05/26 01:26:52;;;;;;;41.10;14.00;;;;;;;13.45;85.20;101640.88;4934915;29;20039;-43
2022/05/26 01:29:36;;;;;;;35.17;14.40;;;;;;;13.44;85.34;101639.13;4935502;29;20028;-45
2022/05/26 01:32:21;;;;;;;32.50;14.30;;;;;;;13.43;85.25;101632.16;4935559;29;20086;-46
2022/05/26 01:35:25;;;;;;;43.20;16.30;;;;;;;13.45;85.23;101646.06;4934891;29;20078;-44
2022/05/26 01:38:15;;;;;;;42.67;16.98;;;;;;;13.45;85.24;101640.88;4935481;29;20036;-44
2022/05/26 01:41:05;;;;;;;41.00;15.40;;;;;;;13.46;85.48;101645.19;4934835;29;20086;-45
2022/05/26 01:43:45;;;;;;;48.58;16.58;;;;;;;13.46;85.35;101647.78;4935613;29;20100;-44
2022/05/26 01:46:38;;;;;;;40.33;16.42;;;;;;;13.47;85.11;101644.38;4935097;29;20028;-46
2022/05/26 01:49:15;;;;;;;39.85;16.38;;;;;;;13.48;85.32;101655.63;4934667;29;20103;-44
2022/05/26 01:51:52;;;;;;;46.00;18.02;;;;;;;13.45;85.60;101651.25;4935518;29;20444;-45
2022/05/26 01:54:25;;;;;;;46.75;18.10;;;;;;;13.46;85.88;101655.56;4935770;29;20099;-44
2022/05/26 01:56:57;;;;;;;44.35;19.05;;;;;;;13.46;86.00;101663.31;4939397;29;20122;-44
2022/05/26 01:59:28;;;;;;;47.17;19.05;;;;;;;13.45;85.95;101664.19;4939101;29;20151;-44
2022/05/26 02:02:02;;;;;;;51.47;19.50;;;;;;;13.45;86.11;101661.59;4938308;29;20024;-46
2022/05/26 02:04:34;;;;;;;47.85;19.67;;;;;;;13.46;86.16;101662.47;4938971;29;20030;-44
2022/05/26 02:07:14;;;;;;;52.22;20.17;;;;;;;13.45;85.98;101661.59;4938828;29;20111;-45
2022/05/26 02:09:42;;;;;;;44.88;19.85;;;;;;;13.44;86.16;101665.00;4938364;29;20031;-44
2022/05/26 02:12:10;;;;;;;48.03;19.90;;;;;;;13.45;86.21;101665.88;4938723;29;20028;-44
2022/05/26 02:14:47;;;;;;;60.17;22.08;;;;;;;13.45;86.33;101671.94;4938938;29;20036;-47
2022/05/26 02:17:26;;;;;;;49.22;19.88;;;;;;;13.45;86.21;101671.06;4937773;29;20020;-45
2022/05/26 02:20:03;;;;;;;55.55;22.30;;;;;;;13.42;86.27;101671.84;4938367;29;20063;-45
2022/05/26 02:22:35;;;;;;;;;;;;;;;13.47;85.72;101679.75;4938505;29;20032;-45
2022/05/26 02:25:04;;;;;;;56.78;21.80;;;;;;;13.42;86.37;101679.59;4938468;29;20050;-45
2022/05/26 02:27:32;;;;;;;62.97;22.42;;;;;;;13.40;86.22;101685.56;4938576;29;20032;-44
2022/05/26 02:30:00;;;;;;;53.60;21.63;;;;;;;13.37;86.44;101678.59;4937548;29;20031;-45
2022/05/26 02:32:35;;;;;;;52.33;21.58;;;;;;;13.36;86.81;101675.91;4938732;29;20023;-45
2022/05/26 02:35:05;;;;;;;59.88;22.42;;;;;;;13.32;86.80;101686.19;4938149;29;20032;-44
2022/05/26 02:37:33;;;;;;;58.63;21.77;;;;;;;13.32;87.06;101690.47;4937724;29;20024;-44
2022/05/26 02:39:59;;;;;;;57.10;21.77;;;;;;;13.31;86.98;101688.69;4938226;29;20028;-44
2022/05/26 02:42:24;;;;;;;55.80;20.08;;;;;;;13.31;86.89;101691.28;4938263;29;20026;-44
2022/05/26 02:44:50;;;;;;;60.85;20.95;;;;;;;13.29;87.45;101690.38;4937782;29;20353;-44
2022/05/26 02:47:18;;;;;;;57.85;22.10;;;;;;;13.28;87.36;101691.22;4938125;29;20469;-46
2022/05/26 02:50:02;;;;;;;67.88;22.55;;;;;;;13.27;87.19;101697.22;4938268;29;20027;-44
2022/05/26 02:53:00;;;;;;;66.32;22.05;;;;;;;13.28;87.07;101691.22;4937321;29;20456;-44
2022/05/26 02:55:45;;;;;;;54.65;21.25;;;;;;;13.27;87.47;101702.38;4938122;29;20122;-45
2022/05/26 02:58:24;;;;;;;51.20;21.55;;;;;;;13.27;87.52;101699.81;4937269;29;20038;-45
2022/05/26 03:00:59;;;;;;;62.33;21.88;;;;;;;13.27;87.64;101692.03;4937915;29;20056;-45
2022/05/26 03:03:31;;;;;;;63.10;21.58;;;;;;;13.26;87.57;101701.53;4937882;29;20035;-44
2022/05/26 03:06:07;;;;;;;68.32;21.77;;;;;;;13.27;87.55;101702.38;4936263;29;20153;-44
2022/05/26 03:08:36;;;;;;;64.22;22.80;;;;;;;13.25;87.88;101698.88;4937981;29;20026;-47
2022/05/26 03:11:13;;;;;;;71.30;23.35;;;;;;;13.23;87.77;101695.34;4937600;29;20054;-44
2022/05/26 03:13:38;;;;;;;66.95;22.98;;;;;;;13.23;87.68;101700.53;4936924;29;20024;-44
2022/05/26 03:16:05;;;;;;;68.53;23.33;;;;;;;13.21;87.75;101702.19;4937679;29;20628;-44
2022/05/26 03:18:30;;;;;;;71.28;22.00;;;;;;;13.17;87.84;101699.50;4937526;29;20074;-45
2022/05/26 03:21:01;;;;;;;68.13;23.17;;;;;;;13.15;88.25;101708.06;4936756;29;20063;-44
2022/05/26 03:23:26;;;;;;;70.93;24.00;;;;;;;13.11;88.49;101704.47;4937596;29;20028;-44
2022/05/26 03:25:57;;;;;;;70.90;24.75;;;;;;;13.10;88.81;101709.59;4936577;29;20035;-45
2022/05/26 03:28:27;;;;;;;63.97;22.35;;;;;;;13.09;88.61;101718.19;4937368;29;20115;-44
2022/05/26 03:30:53;;;;;;;67.00;23.45;;;;;;;13.08;88.61;101719.03;4937589;29;20467;-43
2022/05/26 03:33:19;;;;;;;72.82;24.45;;;;;;;13.04;88.63;101720.66;4936398;29;20027;-45
2022/05/26 03:41:15;;;;;;;64.75;22.45;;;;;;;13.01;88.75;101723.13;4936441;29;20050;-43
2022/05/26 03:43:45;;;;;;;67.03;22.33;;;;;;;13.01;89.17;101731.78;4937337;29;20034;-44
2022/05/26 03:46:11;;;;;;;73.30;22.80;;;;;;;12.99;89.04;101727.38;4937120;29;20102;-44
2022/05/26 03:48:36;;;;;;;78.05;22.23;;;;;;;13.01;89.11;101726.59;4936273;29;20455;-45
2022/05/26 03:51:02;;;;;;;60.92;21.30;;;;;;;13.01;89.03;101736.06;4936767;29;20106;-45
2022/05/26 03:53:27;;;;;;;89.50;22.70;;;;;;;13.00;89.19;101731.69;4937126;29;20043;-45
2022/05/26 03:55:52;;;;;;;70.07;21.42;;;;;;;12.98;89.16;101731.66;4936311;29;20091;-46
2022/05/26 03:58:18;;;;;;;63.85;19.98;;;;;;;12.98;89.34;101741.13;4936834;29;20038;-47
2022/05/26 04:00:43;;;;;;;68.80;19.92;;;;;;;12.95;89.09;101738.44;4936799;29;20067;-44
2022/05/26 04:03:09;;;;;;;65.60;18.35;;;;;;;12.92;89.16;101731.44;4935924;29;20110;-44
2022/05/26 04:05:34;;;;;;;76.50;18.55;;;;;;;12.89;89.27;101752.03;4936802;29;20019;-44
2022/05/26 04:07:59;;;;;;;64.63;18.30;;;;;;;12.88;89.50;101747.69;4935734;29;20414;-44
2022/05/26 04:10:25;;;;;;;71.82;19.10;;;;;;;12.88;89.47;101759.75;4937003;29;20067;-44
2022/05/26 04:12:50;;;;;;;72.10;18.25;;;;;;;12.85;89.71;101756.22;4936708;29;20114;-45
2022/05/26 04:15:17;;;;;;;72.93;18.50;;;;;;;12.85;89.75;101761.41;4935741;29;20036;-45
2022/05/26 04:17:43;;;;;;;72.43;19.33;;;;;;;12.85;89.70;101756.22;4936508;29;20032;-44
2022/05/26 04:20:13;;;;;;;61.90;17.75;;;;;;;12.84;89.82;101759.63;4936190;29;20031;-44
2022/05/26 04:22:39;;;;;;;66.57;18.10;;;;;;;12.83;89.67;101757.91;4935803;29;20028;-44
2022/05/26 04:25:05;;;;;;;70.55;17.50;;;;;;;12.82;89.81;101761.31;4936365;29;20020;-44
2022/05/26 04:27:32;;;;;;;81.90;18.02;;;;;;;12.82;89.88;101765.59;4936309;29;20468;-44
2022/05/26 04:29:58;;;;;;;68.27;17.43;;;;;;;12.83;89.91;101768.25;4935519;29;20027;-44
2022/05/26 04:32:25;;;;;;;48.45;15.75;;;;;;;12.81;89.91;101762.13;4936260;29;20035;-44
2022/05/26 04:34:51;;;;;;;61.13;17.45;;;;;;;12.81;90.17;101764.72;4936250;29;20070;-44
2022/05/26 04:37:22;;;;;;;72.38;16.67;;;;;;;12.78;90.18;101769.78;4935172;29;20031;-45
2022/05/26 04:39:48;;;;;;;58.63;15.75;;;;;;;12.78;90.00;101769.78;4936289;29;20032;-44
2022/05/26 04:42:13;;;;;;;65.00;17.02;;;;;;;12.76;90.11;101776.59;4935787;29;20034;-45
2022/05/26 04:44:42;;;;;;;70.10;15.80;;;;;;;12.78;90.13;101779.25;4935354;29;20480;-46
2022/05/26 04:47:07;;;;;;;71.82;17.60;;;;;;;12.79;90.09;101783.59;4935831;29;20038;-46
2022/05/26 04:49:35;;;;;;;72.97;16.48;;;;;;;12.80;90.20;101783.66;4935995;29;20027;-44
2022/05/26 04:52:00;;;;;;;85.80;16.83;;;;;;;12.83;90.26;101782.88;4935002;29;20379;-44
2022/05/26 04:54:26;;;;;;;61.30;16.13;;;;;;;12.84;89.97;101790.69;4935960;29;20472;-45
2022/05/26 04:56:55;;;;;;;63.38;16.27;;;;;;;12.88;90.01;101795.97;4936010;29;20027;-44
2022/05/26 04:59:21;;;;;;;74.70;17.27;;;;;;;12.92;89.76;101792.66;4934953;29;20079;-45
2022/05/26 05:01:46;;;;;;;58.28;15.45;;;;;;;12.97;89.58;101796.28;4935960;29;20511;-46
2022/05/26 05:04:11;;;;;;;69.97;16.05;;;;;;;13.01;89.26;101806.81;4934627;29;20078;-44
2022/05/26 05:06:36;;;;;;;64.68;16.95;;;;;;;13.05;89.07;101804.31;4935713;29;20032;-47
2022/05/26 05:09:03;;;;;;;63.42;16.92;;;;;;;13.09;88.94;101809.69;4935707;29;20380;-44
2022/05/26 05:11:29;;;;;;;68.60;16.33;;;;;;;13.12;88.81;101817.53;4934930;29;20753;-44
2022/05/26 05:13:55;;;;;;;55.65;16.10;;;;;;;13.17;88.85;101816.00;4935816;29;20016;-44
2022/05/26 05:16:29;;;;;;;65.63;15.25;;;;;;;13.26;88.80;101824.88;4935344;29;20551;-44
2022/05/26 05:18:55;;;;;;;66.65;16.40;;;;;;;13.27;88.06;101821.47;4934801;29;20094;-43
2022/05/26 05:21:35;;;;;;;63.42;16.35;;;;;;;13.31;87.95;101823.34;4935541;29;20031;-45
2022/05/26 05:24:06;;;;;;;60.72;16.00;;;;;;;13.34;88.07;101831.22;4935571;29;20031;-44
2022/05/26 05:26:35;;;;;;;65.00;15.05;;;;;;;13.34;87.60;101829.50;4934777;29;20432;-46
2022/05/26 05:29:07;;;;;;;63.47;15.45;;;;;;;13.34;87.21;101829.50;4936185;29;20032;-45
2022/05/26 05:31:39;;;;;;;55.80;15.15;;;;;;;13.39;87.60;101832.28;4939813;29;20032;-44
2022/05/26 05:34:10;;;;;;;63.83;15.90;;;;;;;13.47;87.41;101840.31;4938759;29;20078;-44
2022/05/26 05:36:38;;;;;;;61.42;16.85;;;;;;;13.52;87.40;101843.03;4939635;29;20055;-44
2022/05/26 05:39:03;;;;;;;59.20;16.00;;;;;;;13.54;86.96;101846.56;4939153;29;20039;-44
2022/05/26 05:41:31;;;;;;;70.80;16.08;;;;;;;13.60;86.99;101847.66;4938716;29;20031;-44
2022/05/26 05:43:56;;;;;;;;;;;;;;;13.67;86.38;101846.16;4939843;29;20035;-44
2022/05/26 05:46:22;;;;;;;69.70;17.10;;;;;;;13.68;86.64;101839.28;4938441;29;20339;-44
2022/05/26 05:48:48;;;;;;;59.03;15.05;;;;;;;13.69;86.10;101841.91;4939338;29;20280;-46
2022/05/26 05:51:15;;;;;;;56.75;15.20;;;;;;;13.73;86.48;101848.94;4938933;29;20035;-46
2022/05/26 05:53:42;;;;;;;60.08;14.95;;;;;;;13.77;86.29;101852.53;4938407;29;20040;-45
2022/05/26 05:56:08;;;;;;;66.10;15.30;;;;;;;13.79;85.95;101853.47;4938736;29;20024;-45
2022/05/26 05:58:33;;;;;;;70.05;15.70;;;;;;;13.83;85.87;101856.19;4939060;29;20028;-45
2022/05/26 06:00:59;;;;;;;67.38;16.95;;;;;;;13.88;85.84;101853.75;4937936;29;20046;-46
2022/05/26 06:03:31;;;;;;;53.22;15.27;;;;;;;13.90;85.42;101851.22;4939079;29;20472;-45
2022/05/26 06:06:02;;;;;;;63.47;16.77;;;;;;;13.94;86.06;101858.25;4939013;29;20592;-44
2022/05/26 06:08:28;;;;;;;60.10;15.75;;;;;;;13.97;85.00;101860.94;4938148;29;20027;-44
2022/05/26 06:10:53;;;;;;;68.07;14.27;;;;;;;14.00;85.07;101866.22;4938769;29;20119;-47
2022/05/26 06:13:19;;;;;;;58.53;16.27;;;;;;;14.09;85.19;101866.50;4938514;29;20059;-44
2022/05/26 06:15:46;;;;;;;56.63;15.90;;;;;;;14.15;84.72;101868.41;4938000;29;20472;-45
2022/05/26 06:18:12;;;;;;;55.45;15.65;;;;;;;14.18;84.25;101878.88;4938434;29;20055;-43
2022/05/26 06:20:37;;;;;;;50.50;15.02;;;;;;;14.16;83.82;101875.34;4938634;29;20028;-44
2022/05/26 06:23:02;;;;;;;50.55;15.13;;;;;;;14.16;84.56;101873.66;4937537;29;20039;-47
2022/05/26 06:25:27;;;;;;;68.88;16.23;;;;;;;14.12;84.25;101879.53;4938499;29;20479;-48
2022/05/26 06:30:37;;;;;;;51.92;17.23;;;;;;;14.11;84.71;101890.78;4937771;29;20395;-44
2022/05/26 06:38:39;;;;;;;57.60;19.63;;;;;;;14.40;82.92;101901.16;4938660;29;20416;-46
2022/05/26 06:43:52;;;;;;;58.05;19.33;;;;;;;14.67;83.64;101895.09;4937719;29;20494;-44
2022/05/26 06:46:18;;;;;;;67.40;19.23;;;;;;;14.91;83.05;101899.22;4937937;29;20023;-45
2022/05/26 06:48:44;;;;;;;58.00;19.33;;;;;;;15.01;80.85;101895.19;4938361;29;20047;-44
2022/05/26 06:51:09;;;;;;;56.70;19.23;;;;;;;14.98;80.03;101896.84;4937230;29;20059;-45
2022/05/26 06:53:34;;;;;;;61.55;21.88;;;;;;;14.97;79.15;101905.47;4938124;29;20028;-48
2022/05/26 06:56:00;;;;;;;52.70;20.20;;;;;;;14.99;78.98;101902.94;4937653;29;20031;-47
2022/05/26 06:58:26;;;;;;;55.38;18.38;;;;;;;15.12;79.71;101911.94;4936953;29;20050;-44
2022/05/26 07:00:52;;;;;;;60.55;20.58;;;;;;;15.22;79.57;101906.16;4937589;29;20059;-44
2022/05/26 07:03:18;;;;;;;58.28;19.60;;;;;;;15.35;78.85;101920.38;4937635;29;20031;-45
2022/05/26 07:05:43;;;;;;;56.90;18.90;;;;;;;15.45;79.02;101914.59;4936948;29;20023;-47
2022/05/26 07:08:08;;;;;;;49.47;17.25;;;;;;;15.63;77.54;101913.28;4937462;29;20042;-45
2022/05/26 07:10:34;;;;;;;51.38;17.98;;;;;;;15.73;76.72;101915.28;4937536;29;20030;-44
2022/05/26 07:13:00;;;;;;;62.33;18.15;;;;;;;15.78;75.67;101918.88;4936618;29;20079;-49
2022/05/26 07:15:25;;;;;;;48.92;18.67;;;;;;;15.80;75.11;101924.09;4937312;29;20079;-44
2022/05/26 07:17:50;;;;;;;39.15;16.55;;;;;;;15.77;74.88;101924.91;4936913;29;20118;-45
2022/05/26 07:20:16;;;;;;;44.05;17.08;;;;;;;15.67;72.70;101935.03;4937513;29;20039;-47
2022/05/26 07:22:41;;;;;;;40.53;15.23;;;;;;;15.63;73.00;101936.69;4937473;29;20115;-45
2022/05/26 07:25:08;;;;;;;52.33;16.65;;;;;;;15.77;73.18;101932.72;4936198;29;20805;-46
2022/05/26 07:27:33;;;;;;;45.15;16.38;;;;;;;15.91;73.13;101938.28;4937239;29;20024;-46
2022/05/26 07:29:59;;;;;;;43.10;17.00;;;;;;;16.06;74.45;101943.00;4936873;29;20042;-45
2022/05/26 07:32:24;;;;;;;46.33;17.95;;;;;;;16.15;73.16;101949.25;4936583;29;20083;-44
2022/05/26 07:34:50;;;;;;;35.55;16.90;;;;;;;16.19;71.96;101951.09;4937473;29;20024;-47
2022/05/26 07:42:43;;;;;;;52.03;17.55;;;;;;;16.08;72.13;101954.31;4937294;29;20046;-48
2022/05/26 07:45:09;;;;;;;42.72;17.20;;;;;;;16.04;71.08;101968.09;4936762;29;20028;-47
2022/05/26 07:47:36;;;;;;;43.33;17.13;;;;;;;16.06;71.05;101961.22;4936522;29;20368;-45
2022/05/26 07:50:03;;;;;;;39.05;17.27;;;;;;;16.12;71.96;101961.34;4936890;29;20079;-45
2022/05/26 07:52:28;;;;;;;50.85;17.45;;;;;;;16.21;71.93;101954.63;4936373;29;20036;-47
2022/05/26 07:54:54;;;;;;;43.88;16.88;;;;;;;16.31;70.50;101941.00;4935971;29;20024;-45
2022/05/26 07:57:24;;;;;;;42.95;17.77;;;;;;;16.57;70.27;101948.50;4936282;29;20099;-46
2022/05/26 07:59:50;;;;;;;47.60;17.40;;;;;;;16.71;69.57;101952.28;4936710;29;20036;-46
2022/05/26 08:02:17;;;;;;;44.25;17.23;;;;;;;16.76;68.61;101952.41;4935855;29;20191;-45
2022/05/26 08:04:42;;;;;;;48.30;17.25;;;;;;;16.67;68.21;101965.19;4936778;29;20028;-47
2022/05/26 08:07:08;;;;;;;40.97;17.42;;;;;;;16.60;68.57;101969.38;4935654;29;20071;-46
2022/05/26 08:09:35;;;;;;;43.65;16.98;;;;;;;16.47;68.24;101976.03;4936584;28;20034;-46
2022/05/26 08:12:00;;;;;;;47.80;17.27;;;;;;;16.46;70.13;101977.78;4936648;29;20043;-44
2022/05/26 08:14:25;;;;;;;38.20;16.85;;;;;;;16.53;70.52;101972.72;4936109;29;20284;-44
2022/05/26 08:16:50;;;;;;;41.47;16.13;;;;;;;16.66;69.70;101974.75;4936662;29;20036;-46
2022/05/26 08:19:17;;;;;;;44.60;17.08;;;;;;;16.76;68.84;101971.50;4936061;29;20047;-44
2022/05/26 08:21:42;;;;;;;39.58;18.20;;;;;;;16.89;68.22;101970.03;4935841;29;20023;-46
2022/05/26 08:24:08;;;;;;;40.15;16.83;;;;;;;16.98;68.87;101977.22;4935963;29;20123;-45
2022/05/26 08:26:33;;;;;;;41.60;16.88;;;;;;;17.01;67.29;101968.59;4936344;29;20035;-47
2022/05/26 08:28:58;;;;;;;37.55;16.23;;;;;;;16.94;66.61;101970.19;4935509;29;20464;-46
2022/05/26 08:31:24;;;;;;;32.15;15.95;;;;;;;17.12;68.24;101974.91;4936387;29;20040;-46
2022/05/26 08:33:50;;;;;;;39.28;15.88;;;;;;;17.22;65.87;101973.34;4936440;29;20051;-45
2022/05/26 08:36:23;;;;;;;47.83;15.80;;;;;;;17.51;66.47;101975.66;4935316;29;20240;-45
2022/05/26 08:38:49;;;;;;;37.95;14.20;;;;;;;17.88;65.43;101978.91;4936270;29;20066;-46
2022/05/26 08:41:24;;;;;;;33.92;14.68;;;;;;;17.89;64.00;101989.38;4935779;29;20051;-45
2022/05/26 08:43:58;;;;;;;34.33;14.40;;;;;;;17.76;63.74;101980.44;4935561;29;20038;-48
2022/05/26 08:46:27;;;;;;;34.63;15.38;;;;;;;17.68;64.42;101987.25;4936108;29;20028;-45
2022/05/26 08:49:28;;;;;;;35.75;15.00;;;;;;;17.70;64.20;101990.78;4936035;29;20118;-44
2022/05/26 08:52:13;;;;;;;38.40;16.63;;;;;;;17.78;63.82;101993.53;4936185;29;20038;-45
2022/05/26 08:54:51;;;;;;;38.25;13.73;;;;;;;17.80;61.89;101989.22;4936196;29;20051;-45
2022/05/26 08:57:33;;;;;;;26.88;13.10;;;;;;;17.72;61.62;101993.41;4935009;29;20414;-46
2022/05/26 08:59:59;;;;;;;34.83;12.60;;;;;;;17.51;62.25;101999.13;4935695;29;20031;-47
2022/05/26 09:02:34;;;;;;;37.92;13.80;;;;;;;17.55;63.12;101995.72;4935991;29;20119;-45
2022/05/26 09:05:03;;;;;;;39.22;13.18;;;;;;;17.83;62.88;102006.63;4934389;29;20028;-47
2022/05/26 09:13:17;;;;;;;33.63;13.88;;;;;;;18.36;59.62;102001.50;4935935;29;20038;-45
2022/05/26 09:15:42;;;;;;;33.35;14.40;;;;;;;18.58;59.41;101994.88;4935846;29;20032;-46
2022/05/26 09:18:20;;;;;;;32.90;13.85;;;;;;;18.80;59.42;101995.19;4934577;29;20039;-46
2022/05/26 09:20:48;;;;;;;32.92;13.23;;;;;;;18.72;57.57;101994.19;4935621;29;20380;-46
2022/05/26 09:23:23;;;;;;;;;;;;;;;18.89;58.98;101994.44;4935848;29;20487;-48
2022/05/26 09:26:00;;;;;;;26.40;13.02;;;;;;;18.68;57.67;102001.13;4935025;29;19946;-45
2022/05/26 09:28:38;;;;;;;20.45;10.05;;;;;;;18.70;56.77;102016.81;4935675;29;20030;-46
2022/05/26 09:31:33;;;;;;;24.25;9.23;;;;;;;19.07;56.95;102015.59;4935508;29;20039;-45
2022/05/26 09:34:03;;;;;;;19.63;9.70;;;;;;;19.42;54.23;102016.91;4935475;29;20040;-46
2022/05/26 09:36:32;;;;;;;22.17;8.15;;;;;;;19.37;53.65;102021.19;4935562;29;20027;-45
2022/05/26 09:38:58;;;;;;;17.20;9.05;;;;;;;19.45;54.33;102016.06;4934501;29;20028;-46
2022/05/26 09:41:23;;;;;;;25.00;9.45;;;;;;;19.66;55.25;102018.88;4935401;29;20111;-45
2022/05/26 09:43:54;;;;;;;26.73;12.65;;;;;;;19.68;55.03;102018.94;4935372;29;20400;-45
2022/05/26 09:46:24;;;;;;;27.80;11.57;;;;;;;19.24;53.66;102026.25;4934554;29;20765;-46
2022/05/26 09:48:56;;;;;;;27.60;10.52;;;;;;;19.06;54.63;102026.03;4935506;29;20095;-46
2022/05/26 09:51:26;;;;;;;31.58;12.93;;;;;;;19.16;54.49;102024.41;4935426;29;20028;-45
2022/05/26 09:53:54;;;;;;;25.83;12.38;;;;;;;19.47;54.37;102025.66;4934641;29;20133;-45
2022/05/26 09:56:39;;;;;;;34.33;14.50;;;;;;;19.58;55.03;102024.03;4935270;29;20450;-46
2022/05/26 09:59:29;;;;;;;44.50;20.25;;;;;;;19.43;55.26;102034.31;4934843;29;20443;-46
2022/05/26 10:02:20;;;;;;;45.72;22.23;;;;;;;19.35;56.21;102031.63;4934549;29;20042;-45
2022/05/26 10:04:59;;;;;;;38.85;20.45;;;;;;;19.73;55.60;102040.78;4935312;29;20464;-46
2022/05/26 10:07:37;;;;;;;38.13;17.63;;;;;;;20.17;54.06;102031.63;4934553;29;20126;-46
2022/05/26 10:10:33;;;;;;;32.97;18.45;;;;;;;20.45;53.05;102031.84;4935060;29;20026;-46
2022/05/26 10:13:33;;;;;;;26.98;13.95;;;;;;;20.85;50.80;102029.50;4935261;29;20036;-46
2022/05/26 10:16:05;;;;;;;25.80;12.50;;;;;;;21.37;50.57;102034.13;4936684;29;20032;-45
2022/05/26 10:18:39;;;;;;;25.35;10.85;;;;;;;20.91;49.14;102040.03;4938555;29;20106;-45
2022/05/26 10:21:33;;;;;;;23.92;9.43;;;;;;;21.24;50.58;102051.56;4937954;29;20035;-45
2022/05/26 10:24:28;;;;;;;19.08;8.77;;;;;;;21.80;48.85;102050.00;4938402;29;20024;-46
2022/05/26 10:27:05;;;;;;;22.77;8.52;;;;;;;22.64;45.89;102039.56;4938595;29;20506;-47
2022/05/26 10:30:04;;;;;;;;;;;;;;;22.79;44.59;102036.03;4938464;29;20487;-45
2022/05/26 10:32:42;;;;;;;22.73;9.30;;;;;;;21.44;46.04;102048.16;4937310;29;19914;-45
2022/05/26 10:35:43;;;;;;;21.77;11.90;;;;;;;21.27;48.11;102046.31;4937652;29;20110;-46
2022/05/26 10:38:42;;;;;;;31.10;13.25;;;;;;;21.71;47.74;102045.63;4933312;29;20039;-45
2022/05/26 10:41:23;;;;;;;21.85;11.77;;;;;;;21.80;47.87;102049.16;4938039;29;20383;-45
2022/05/26 10:43:56;;;;;;;22.20;9.65;;;;;;;22.23;44.88;102038.69;4937563;29;20027;-45
2022/05/26 10:46:26;;;;;;;22.85;9.55;;;;;;;23.02;44.32;102042.09;4938357;29;20035;-45
2022/05/26 10:49:18;;;;;;;24.13;10.45;;;;;;;23.67;43.04;102046.22;4937580;29;20035;-47
2022/05/26 10:52:29;;;;;;;26.17;13.27;;;;;;;23.17;43.27;102051.69;4938327;29;20032;-48
2022/05/26 10:55:09;;;;;;;26.13;12.88;;;;;;;23.53;43.49;102038.41;4932509;29;20036;-49
2022/05/26 10:57:55;;;;;;;22.45;12.85;;;;;;;24.44;43.24;102045.66;4937548;29;20032;-45
2022/05/26 11:00:24;;;;;;;28.20;14.60;;;;;;;24.20;39.91;102041.47;4937545;29;20055;-47
2022/05/26 11:02:59;;;;;;;27.92;14.90;;;;;;;23.58;40.94;102046.28;4937834;29;20039;-44
2022/05/26 11:05:35;;;;;;;25.77;17.52;;;;;;;22.62;43.60;102060.59;4937962;29;20027;-46
2022/05/26 11:08:13;;;;;;;48.53;21.25;;;;;;;21.97;44.91;102057.91;4937809;29;20031;-45
2022/05/26 11:10:53;;;;;;;31.98;19.17;;;;;;;21.91;46.75;102063.19;4937105;29;20032;-46
2022/05/26 11:13:38;;;;;;;32.53;19.55;;;;;;;22.31;46.17;102052.69;4937680;29;20028;-46
2022/05/26 11:19:28;;;;;;;32.90;19.45;;;;;;;21.04;48.14;102057.59;4936610;29;20511;-45
2022/05/26 11:21:54;;;;;;;33.75;19.27;;;;;;;20.94;47.46;102045.31;4937763;29;20040;-45
2022/05/26 11:24:22;;;;;;;25.80;16.75;;;;;;;20.82;47.27;102047.84;4936662;29;20490;-44
2022/05/26 11:26:54;;;;;;;29.77;16.05;;;;;;;20.39;48.81;102046.63;4936858;29;20030;-45
2022/05/26 11:29:32;;;;;;;27.55;14.50;;;;;;;20.27;49.73;102041.31;4937316;29;20200;-46
2022/05/26 11:38:11;;;;;;;27.70;14.70;;;;;;;20.88;48.69;102034.78;4936709;29;20111;-45
2022/05/26 11:41:05;;;;;;;26.20;13.48;;;;;;;21.63;47.33;102030.75;4937334;29;20307;-46
2022/05/26 11:43:57;;;;;;;30.42;16.88;;;;;;;22.10;46.22;102027.28;4934672;29;20535;-48
2022/05/26 11:46:41;;;;;;;30.15;16.00;;;;;;;22.05;46.74;102034.28;4936385;29;20036;-47
2022/05/26 11:49:07;;;;;;;28.88;16.50;;;;;;;21.20;45.98;102036.66;4936771;29;20188;-46
2022/05/26 11:51:41;;;;;;;30.20;17.90;;;;;;;20.63;48.17;102029.38;4937118;29;20387;-45
2022/05/26 11:54:31;;;;;;;41.15;19.30;;;;;;;20.15;48.98;102035.97;4936032;29;20039;-46
2022/05/26 11:56:56;;;;;;;33.47;19.20;;;;;;;19.56;50.46;102040.56;4936810;29;20036;-47
2022/05/26 11:59:31;;;;;;;36.47;19.95;;;;;;;19.44;51.88;102040.44;4936308;29;20030;-47
2022/05/26 12:02:00;;;;;;;29.25;18.33;;;;;;;20.16;50.99;102032.50;4936810;29;20050;-45
2022/05/26 12:04:30;;;;;;;35.13;19.17;;;;;;;21.48;48.51;102023.66;4936769;29;20498;-46
2022/05/26 12:06:59;;;;;;;32.22;18.13;;;;;;;22.74;46.32;102022.03;4936012;29;20071;-47
2022/05/26 12:09:39;;;;;;;33.65;19.50;;;;;;;23.23;44.30;102013.09;4936729;29;20051;-46